Time;durP1;ratioP1;P1;durP2;ratioP2;P2;SDS_P1;SDS_P2;PMS_P1;PMS_P2;Temp;Humidity;BMP_temperature;BMP_pressure;BME280_temperature;BME280_humidity;BME280_pressure;Samples;Min_cycle;Max_cycle;Signal;HPM_P1;HPM_P2
2022/09/06 00:00:24;;;;;;;7.43;2.00;;;;;;;;;;5060632;28;20203;-60
2022/09/06 00:02:52;;;;;;;3.47;1.60;;;;;;;;;;5060446;28;20206;-60
2022/09/06 00:05:20;;;;;;;5.00;1.70;;;;;;;;;;5060829;28;20206;-60
2022/09/06 00:07:48;;;;;;;6.60;2.07;;;;;;;;;;5060174;28;20277;-60
2022/09/06 00:10:18;;;;;;;5.37;1.93;;;;;;;;;;5060453;28;20693;-61
2022/09/06 00:12:46;;;;;;;2.90;1.60;;;;;;;;;;5060319;28;20669;-61
2022/09/06 00:15:14;;;;;;;6.07;2.00;;;;;;;;;;5060826;28;20227;-60
2022/09/06 00:17:44;;;;;;;3.67;1.70;;;;;;;;;;5060278;28;20234;-60
2022/09/06 00:20:12;;;;;;;3.47;1.33;;;;;;;;;;5060518;28;20203;-61
2022/09/06 00:22:40;;;;;;;6.33;2.03;;;;;;;;;;5060439;28;20233;-62
2022/09/06 00:25:08;;;;;;;6.07;2.03;;;;;;;;;;5060123;28;20751;-62
2022/09/06 00:27:38;;;;;;;7.70;1.60;;;;;;;;;;5060005;28;20234;-60
2022/09/06 00:30:06;;;;;;;7.57;1.67;;;;;;;;;;5060321;28;20228;-59
2022/09/06 00:32:34;;;;;;;5.07;2.00;;;;;;;;;;5059958;28;20271;-60
2022/09/06 00:35:02;;;;;;;6.33;1.70;;;;;;;;;;5059932;28;20302;-60
2022/09/06 00:37:30;;;;;;;8.83;2.03;;;;;;;;;;5059727;28;20214;-61
2022/09/06 00:39:58;;;;;;;4.30;1.67;;;;;;;;;;5060181;28;20216;-60
2022/09/06 00:42:26;;;;;;;4.93;1.93;;;;;;;;;;5059750;28;20207;-61
2022/09/06 00:44:56;;;;;;;5.50;1.63;;;;;;;;;;5059998;28;20260;-61
2022/09/06 00:47:26;;;;;;;3.83;1.60;;;;;;;;;;5059991;28;20260;-62
2022/09/06 00:49:55;;;;;;;5.90;1.80;;;;;;;;;;5059506;28;20283;-60
2022/09/06 00:52:24;;;;;;;8.17;2.10;;;;;;;;;;5059261;28;20245;-60
2022/09/06 00:54:52;;;;;;;4.17;1.70;;;;;;;;;;5059414;28;20223;-61
2022/09/06 00:57:20;;;;;;;5.63;1.80;;;;;;;;;;5059417;28;20210;-60
2022/09/06 00:59:49;;;;;;;4.43;1.33;;;;;;;;;;5059643;28;20221;-60
2022/09/06 01:02:18;;;;;;;6.40;2.07;;;;;;;;;;5059308;28;20268;-62
2022/09/06 01:04:48;;;;;;;4.30;1.57;;;;;;;;;;5059382;28;20241;-62
2022/09/06 01:07:26;;;;;;;6.27;1.53;;;;;;;;;;5059431;28;20234;-62
2022/09/06 01:10:01;;;;;;;6.67;2.27;;;;;;;;;;5059275;28;20761;-62
2022/09/06 01:12:35;;;;;;;4.63;1.43;;;;;;;;;;5059258;28;20610;-61
2022/09/06 01:15:07;;;;;;;4.90;1.63;;;;;;;;;;5059275;28;20574;-60
2022/09/06 01:17:41;;;;;;;6.03;1.40;;;;;;;;;;5059246;28;20210;-61
2022/09/06 01:20:26;;;;;;;3.77;1.57;;;;;;;;;;5059563;28;20259;-62
2022/09/06 01:23:09;;;;;;;7.50;2.70;;;;;;;;;;5058898;28;20214;-62
2022/09/06 01:25:41;;;;;;;4.67;2.43;;;;;;;;;;5057413;28;20210;-62
2022/09/06 01:28:28;;;;;;;5.63;1.50;;;;;;;;;;5059438;28;20210;-62
2022/09/06 01:31:00;;;;;;;6.50;1.67;;;;;;;;;;5059222;28;20248;-62
2022/09/06 01:33:32;;;;;;;4.90;1.60;;;;;;;;;;5058914;28;20237;-62
2022/09/06 01:36:02;;;;;;;4.53;1.67;;;;;;;;;;5058925;28;20668;-62
2022/09/06 01:38:30;;;;;;;6.13;2.60;;;;;;;;;;5058581;28;20209;-62
2022/09/06 01:40:58;;;;;;;7.80;1.90;;;;;;;;;;5059003;28;20209;-62
2022/09/06 01:43:29;;;;;;;7.20;2.30;;;;;;;;;;5058624;28;20664;-61
2022/09/06 01:46:03;;;;;;;2.03;1.67;;;;;;;;;;5058960;28;20204;-61
2022/09/06 01:48:36;;;;;;;5.00;1.83;;;;;;;;;;5058659;28;20230;-61
2022/09/06 01:51:11;;;;;;;4.03;2.17;;;;;;;;;;5058527;28;20306;-62
2022/09/06 01:53:46;;;;;;;6.93;1.70;;;;;;;;;;5058524;28;20223;-62
2022/09/06 01:56:20;;;;;;;4.43;1.83;;;;;;;;;;5058563;28;20206;-62
2022/09/06 01:59:03;;;;;;;8.93;1.90;;;;;;;;;;5058507;28;20210;-61
2022/09/06 02:01:35;;;;;;;4.03;1.50;;;;;;;;;;5058531;28;20203;-62
2022/09/06 02:04:10;;;;;;;4.80;1.97;;;;;;;;;;5058499;28;20234;-62
2022/09/06 02:06:40;;;;;;;5.53;1.70;;;;;;;;;;5058011;28;20727;-61
2022/09/06 02:09:10;;;;;;;4.87;1.87;;;;;;;;;;5058469;28;20206;-62
2022/09/06 02:11:41;;;;;;;5.37;2.37;;;;;;;;;;5058321;28;20262;-62
2022/09/06 02:14:13;;;;;;;6.10;1.90;;;;;;;;;;5057526;28;20698;-62
2022/09/06 02:16:43;;;;;;;4.17;1.97;;;;;;;;;;5058120;28;20579;-61
2022/09/06 02:19:14;;;;;;;3.93;1.57;;;;;;;;;;5057988;28;20206;-62
2022/09/06 02:21:45;;;;;;;2.87;1.70;;;;;;;;;;5057995;28;20201;-62
2022/09/06 02:24:15;;;;;;;7.60;1.77;;;;;;;;;;5058252;28;20255;-62
2022/09/06 02:26:44;;;;;;;2.93;1.77;;;;;;;;;;5058080;28;20212;-61
2022/09/06 02:29:13;;;;;;;5.07;2.37;;;;;;;;;;5058121;28;20264;-61
2022/09/06 02:31:43;;;;;;;4.47;1.60;;;;;;;;;;5057833;28;20235;-61
2022/09/06 02:34:13;;;;;;;3.70;1.60;;;;;;;;;;5057978;28;20262;-62
2022/09/06 02:36:41;;;;;;;8.63;2.40;;;;;;;;;;5057811;28;20206;-62
2022/09/06 02:39:10;;;;;;;8.03;3.20;;;;;;;;;;5057694;28;20268;-61
2022/09/06 02:41:39;;;;;;;8.30;3.37;;;;;;;;;;5057523;28;20199;-61
2022/09/06 02:44:07;;;;;;;9.00;3.03;;;;;;;;;;5077661;28;20515;-61
2022/09/06 02:46:37;;;;;;;4.53;2.33;;;;;;;;;;5070138;28;20209;-61
2022/09/06 02:49:05;;;;;;;5.40;2.50;;;;;;;;;;5054327;28;20209;-62
2022/09/06 02:51:36;;;;;;;9.00;2.23;;;;;;;;;;5055461;28;20232;-62
2022/09/06 02:54:04;;;;;;;4.07;1.70;;;;;;;;;;5056750;28;20229;-62
2022/09/06 02:56:32;;;;;;;8.10;2.47;;;;;;;;;;5057652;28;20255;-61
2022/09/06 02:59:00;;;;;;;8.70;1.67;;;;;;;;;;5057374;28;20209;-62
2022/09/06 03:01:28;;;;;;;5.00;2.10;;;;;;;;;;5057431;28;20204;-62
2022/09/06 03:03:58;;;;;;;13.43;2.57;;;;;;;;;;5057403;28;20224;-62
2022/09/06 03:06:26;;;;;;;6.43;1.93;;;;;;;;;;5057070;28;20587;-62
2022/09/06 03:08:54;;;;;;;5.40;1.70;;;;;;;;;;5057485;28;20215;-60
2022/09/06 03:11:22;;;;;;;6.17;1.83;;;;;;;;;;5057127;28;20262;-60
2022/09/06 03:13:51;;;;;;;5.67;1.60;;;;;;;;;;5057146;28;20254;-60
2022/09/06 03:16:19;;;;;;;5.47;1.43;;;;;;;;;;5057582;28;20209;-60
2022/09/06 03:18:47;;;;;;;6.73;1.80;;;;;;;;;;5056481;28;20200;-60
2022/09/06 03:21:17;;;;;;;8.70;2.20;;;;;;;;;;5055496;28;20207;-60
2022/09/06 03:23:45;;;;;;;9.80;2.10;;;;;;;;;;5055015;28;20727;-60
2022/09/06 03:26:15;;;;;;;5.97;2.27;;;;;;;;;;5058995;28;20231;-60
2022/09/06 03:28:43;;;;;;;4.57;2.07;;;;;;;;;;5059796;28;20212;-60
2022/09/06 03:31:11;;;;;;;5.53;1.80;;;;;;;;;;5059319;28;20224;-60
2022/09/06 03:33:39;;;;;;;5.17;2.00;;;;;;;;;;5060340;28;20271;-60
2022/09/06 03:36:08;;;;;;;7.33;2.10;;;;;;;;;;5076256;28;20206;-60
2022/09/06 03:38:37;;;;;;;4.47;1.60;;;;;;;;;;5081096;28;20237;-60
2022/09/06 03:41:05;;;;;;;4.80;1.73;;;;;;;;;;5080913;28;20243;-60
2022/09/06 03:43:33;;;;;;;4.70;1.73;;;;;;;;;;5081203;28;20226;-60
2022/09/06 03:46:01;;;;;;;9.07;2.03;;;;;;;;;;5081087;28;20235;-60
2022/09/06 03:48:30;;;;;;;6.63;2.00;;;;;;;;;;5062676;28;20685;-60
2022/09/06 03:50:59;;;;;;;5.10;1.87;;;;;;;;;;5060678;28;20286;-61
2022/09/06 03:53:27;;;;;;;7.47;2.40;;;;;;;;;;5063337;28;20706;-61
2022/09/06 03:55:57;;;;;;;5.73;1.73;;;;;;;;;;5080946;28;20212;-61
2022/09/06 03:58:29;;;;;;;6.03;2.00;;;;;;;;;;5080815;28;20236;-61
2022/09/06 04:01:01;;;;;;;2.80;1.50;;;;;;;;;;5066538;28;20205;-61
2022/09/06 04:03:29;;;;;;;6.43;1.80;;;;;;;;;;5060064;28;20917;-61
2022/09/06 04:05:58;;;;;;;6.23;2.20;;;;;;;;;;5057102;28;20650;-61
2022/09/06 04:08:26;;;;;;;3.77;1.57;;;;;;;;;;5070939;28;20561;-61
2022/09/06 04:10:55;;;;;;;4.77;1.90;;;;;;;;;;5061215;28;20231;-61
2022/09/06 04:13:26;;;;;;;4.53;1.77;;;;;;;;;;5059138;28;20257;-61
2022/09/06 04:15:54;;;;;;;4.63;2.00;;;;;;;;;;5057259;28;20558;-61
2022/09/06 04:18:22;;;;;;;6.70;2.27;;;;;;;;;;5059445;28;20211;-59
2022/09/06 04:20:55;;;;;;;6.27;2.50;;;;;;;;;;5057505;28;20543;-59
2022/09/06 04:23:24;;;;;;;5.77;1.80;;;;;;;;;;5060472;28;20254;-59
2022/09/06 04:25:53;;;;;;;5.40;2.33;;;;;;;;;;5058769;28;20666;-59
2022/09/06 04:28:22;;;;;;;11.27;2.17;;;;;;;;;;5058974;28;20255;-60
2022/09/06 04:30:53;;;;;;;5.97;1.47;;;;;;;;;;5059802;28;20295;-61
2022/09/06 04:33:24;;;;;;;3.67;1.50;;;;;;;;;;5059648;28;20281;-60
2022/09/06 04:35:53;;;;;;;6.33;2.03;;;;;;;;;;5078218;28;20261;-60
2022/09/06 04:38:21;;;;;;;5.53;1.43;;;;;;;;;;5079730;28;20729;-61
2022/09/06 04:40:49;;;;;;;5.60;1.80;;;;;;;;;;5080133;28;20207;-60
2022/09/06 04:43:17;;;;;;;9.40;2.30;;;;;;;;;;5080045;28;20226;-61
2022/09/06 04:45:45;;;;;;;5.63;2.27;;;;;;;;;;5080150;28;20237;-61
2022/09/06 04:48:15;;;;;;;5.50;1.80;;;;;;;;;;5063779;28;20258;-61
2022/09/06 04:50:43;;;;;;;3.83;1.47;;;;;;;;;;5059787;28;20242;-61
2022/09/06 04:53:11;;;;;;;8.33;1.83;;;;;;;;;;5059412;28;20244;-60
2022/09/06 04:55:39;;;;;;;3.63;1.80;;;;;;;;;;5059780;28;20204;-60
2022/09/06 04:58:07;;;;;;;4.67;1.70;;;;;;;;;;5059789;28;20208;-61
2022/09/06 05:00:37;;;;;;;7.07;1.90;;;;;;;;;;5059420;28;20222;-61
2022/09/06 05:03:05;;;;;;;7.03;1.77;;;;;;;;;;5059486;28;20231;-61
2022/09/06 05:05:35;;;;;;;5.87;2.20;;;;;;;;;;5059740;28;20206;-61
2022/09/06 05:08:03;;;;;;;8.17;2.40;;;;;;;;;;5059433;28;20203;-60
2022/09/06 05:10:31;;;;;;;7.10;1.87;;;;;;;;;;5058779;28;20665;-61
2022/09/06 05:12:59;;;;;;;6.60;2.27;;;;;;;;;;5059242;28;20225;-60
2022/09/06 05:15:27;;;;;;;4.93;1.80;;;;;;;;;;5070971;28;20208;-61
2022/09/06 05:18:01;;;;;;;7.10;2.07;;;;;;;;;;5079295;28;20688;-61
2022/09/06 05:20:30;;;;;;;8.10;2.77;;;;;;;;;;5079272;28;20206;-61
2022/09/06 05:23:00;;;;;;;5.27;2.23;;;;;;;;;;5076454;28;20243;-61
2022/09/06 05:25:28;;;;;;;6.20;2.13;;;;;;;;;;5058938;28;20209;-60
2022/09/06 05:27:56;;;;;;;9.37;2.50;;;;;;;;;;5059548;28;20217;-60
2022/09/06 05:30:24;;;;;;;9.40;2.60;;;;;;;;;;5059234;28;20260;-59
2022/09/06 05:32:52;;;;;;;6.07;2.47;;;;;;;;;;5059068;28;20233;-60
2022/09/06 05:35:20;;;;;;;11.30;2.40;;;;;;;;;;5059172;28;20206;-60
2022/09/06 05:37:48;;;;;;;10.53;2.27;;;;;;;;;;5058852;28;20247;-60
2022/09/06 05:40:18;;;;;;;6.03;1.80;;;;;;;;;;5058906;28;20234;-59
2022/09/06 05:42:46;;;;;;;3.27;2.00;;;;;;;;;;5057420;28;20207;-60
2022/09/06 05:45:14;;;;;;;6.20;2.10;;;;;;;;;;5057378;28;20676;-59
2022/09/06 05:47:42;;;;;;;9.60;2.40;;;;;;;;;;5058361;28;20202;-59
2022/09/06 05:50:10;;;;;;;6.27;2.20;;;;;;;;;;5058444;28;20206;-60
2022/09/06 05:52:39;;;;;;;6.40;1.90;;;;;;;;;;5058532;28;20227;-59
2022/09/06 05:55:07;;;;;;;7.37;2.43;;;;;;;;;;5058186;28;20230;-60
2022/09/06 05:57:36;;;;;;;4.97;2.00;;;;;;;;;;5058290;28;20211;-60
2022/09/06 06:00:05;;;;;;;6.53;1.80;;;;;;;;;;5056977;28;20655;-60
2022/09/06 06:02:33;;;;;;;5.23;1.90;;;;;;;;;;5050806;28;20311;-60
2022/09/06 06:05:02;;;;;;;4.57;2.10;;;;;;;;;;5058550;28;20230;-61
2022/09/06 06:07:31;;;;;;;5.80;2.13;;;;;;;;;;5058413;28;20207;-61
2022/09/06 06:09:59;;;;;;;6.30;1.80;;;;;;;;;;5058448;28;20210;-61
2022/09/06 06:12:27;;;;;;;6.13;2.30;;;;;;;;;;5057980;28;20231;-61
2022/09/06 06:14:57;;;;;;;5.30;1.83;;;;;;;;;;5066805;28;20254;-60
2022/09/06 06:17:25;;;;;;;6.23;2.30;;;;;;;;;;5068333;28;20253;-61
2022/09/06 06:19:53;;;;;;;5.77;2.37;;;;;;;;;;5057995;28;20612;-61
2022/09/06 06:22:22;;;;;;;6.53;2.13;;;;;;;;;;5057918;28;20212;-61
2022/09/06 06:24:50;;;;;;;6.53;2.93;;;;;;;;;;5058213;28;20227;-61
2022/09/06 06:27:18;;;;;;;8.03;2.33;;;;;;;;;;5057982;28;20270;-61
2022/09/06 06:29:49;;;;;;;10.87;2.70;;;;;;;;;;5058218;28;20261;-61
2022/09/06 06:32:19;;;;;;;7.73;2.60;;;;;;;;;;5058002;28;20206;-61
2022/09/06 06:34:47;;;;;;;8.53;2.77;;;;;;;;;;5049706;28;20228;-60
2022/09/06 06:37:15;;;;;;;4.23;2.30;;;;;;;;;;5055460;28;20230;-61
2022/09/06 06:39:44;;;;;;;11.97;2.60;;;;;;;;;;5049240;28;20647;-60
2022/09/06 06:42:14;;;;;;;9.27;2.87;;;;;;;;;;5057403;28;20291;-61
2022/09/06 06:44:42;;;;;;;10.30;2.63;;;;;;;;;;5057648;28;20223;-60
2022/09/06 06:47:11;;;;;;;9.00;2.57;;;;;;;;;;5057781;28;20204;-60
2022/09/06 06:49:40;;;;;;;10.60;3.07;;;;;;;;;;5057811;28;20238;-61
2022/09/06 06:52:09;;;;;;;7.90;2.93;;;;;;;;;;5052390;28;20306;-61
2022/09/06 06:54:37;;;;;;;8.70;2.83;;;;;;;;;;5057607;28;20310;-61
2022/09/06 06:57:08;;;;;;;5.27;2.40;;;;;;;;;;5044943;28;20215;-60
2022/09/06 06:59:37;;;;;;;5.33;2.53;;;;;;;;;;5053388;28;20237;-60
2022/09/06 07:02:05;;;;;;;7.83;2.57;;;;;;;;;;5055987;28;20219;-61
2022/09/06 07:04:33;;;;;;;6.43;2.50;;;;;;;;;;5055816;28;20712;-61
2022/09/06 07:07:04;;;;;;;7.60;2.23;;;;;;;;;;5055741;28;20268;-61
2022/09/06 07:09:52;;;;;;;4.40;2.50;;;;;;;;;;5048019;28;20932;-60
2022/09/06 07:12:40;;;;;;;5.97;2.93;;;;;;;;;;5056261;28;20275;-61
2022/09/06 07:15:09;;;;;;;7.07;2.30;;;;;;;;;;5057541;28;20228;-61
2022/09/06 07:17:37;;;;;;;7.40;2.43;;;;;;;;;;5057147;28;20214;-61
2022/09/06 07:20:06;;;;;;;10.17;2.43;;;;;;;;;;5057287;28;20278;-61
2022/09/06 07:22:44;;;;;;;7.93;2.33;;;;;;;;;;5056715;28;20214;-61
2022/09/06 07:25:15;;;;;;;7.10;2.20;;;;;;;;;;5056363;28;20229;-61
2022/09/06 07:27:48;;;;;;;7.40;2.40;;;;;;;;;;5055973;28;20210;-60
2022/09/06 07:30:18;;;;;;;7.80;2.47;;;;;;;;;;5057077;28;20579;-61
2022/09/06 07:32:46;;;;;;;9.77;2.27;;;;;;;;;;5057243;28;20216;-61
2022/09/06 07:35:15;;;;;;;6.10;2.37;;;;;;;;;;5057197;28;20242;-61
2022/09/06 07:37:51;;;;;;;6.83;2.30;;;;;;;;;;5052978;28;20203;-61
2022/09/06 07:40:19;;;;;;;11.40;2.60;;;;;;;;;;5044305;28;20269;-61
2022/09/06 07:42:47;;;;;;;4.27;2.00;;;;;;;;;;5049689;28;20266;-61
2022/09/06 07:45:16;;;;;;;6.03;1.90;;;;;;;;;;5057013;28;20652;-60
2022/09/06 07:47:44;;;;;;;9.20;3.00;;;;;;;;;;5055891;28;20617;-60
2022/09/06 07:50:29;;;;;;;6.17;2.60;;;;;;;;;;5061313;28;20235;-60
2022/09/06 07:53:17;;;;;;;5.43;2.40;;;;;;;;;;5076444;28;20229;-60
2022/09/06 07:55:57;;;;;;;8.93;2.47;;;;;;;;;;5076869;28;20217;-60
2022/09/06 07:58:25;;;;;;;5.57;2.90;;;;;;;;;;5076804;28;20262;-60
2022/09/06 08:00:53;;;;;;;10.27;2.50;;;;;;;;;;5055467;28;20260;-60
2022/09/06 08:03:21;;;;;;;5.63;2.50;;;;;;;;;;5056934;28;20223;-60
2022/09/06 08:05:50;;;;;;;7.00;2.40;;;;;;;;;;5056204;28;20627;-60
2022/09/06 08:08:35;;;;;;;9.20;2.47;;;;;;;;;;5064537;28;20227;-61
2022/09/06 08:11:24;;;;;;;9.83;2.67;;;;;;;;;;5077438;28;20297;-60
2022/09/06 08:13:54;;;;;;;7.97;2.53;;;;;;;;;;5080437;28;20282;-61
2022/09/06 08:16:22;;;;;;;8.23;3.17;;;;;;;;;;5070294;28;20649;-61
2022/09/06 08:18:52;;;;;;;4.90;2.33;;;;;;;;;;5053385;28;20235;-61
2022/09/06 08:21:22;;;;;;;6.83;2.40;;;;;;;;;;5060088;28;20207;-60
2022/09/06 08:23:52;;;;;;;5.23;2.40;;;;;;;;;;5060202;28;20273;-60
2022/09/06 08:26:22;;;;;;;7.43;1.90;;;;;;;;;;5059972;28;20212;-60
2022/09/06 08:28:53;;;;;;;4.73;1.80;;;;;;;;;;5060482;28;20261;-61
2022/09/06 08:31:21;;;;;;;8.90;2.77;;;;;;;;;;5060939;28;20718;-62
2022/09/06 08:33:49;;;;;;;3.47;2.10;;;;;;;;;;5053666;28;20223;-62
2022/09/06 08:36:17;;;;;;;7.73;2.63;;;;;;;;;;5059709;28;20679;-62
2022/09/06 08:38:46;;;;;;;5.27;2.40;;;;;;;;;;5051039;28;20204;-62
2022/09/06 08:41:23;;;;;;;3.57;2.00;;;;;;;;;;5059971;28;20215;-62
2022/09/06 08:43:53;;;;;;;6.87;1.83;;;;;;;;;;5059603;28;20717;-62
2022/09/06 08:46:45;;;;;;;5.33;2.10;;;;;;;;;;5059375;28;20674;-62
2022/09/06 08:49:13;;;;;;;5.27;2.30;;;;;;;;;;5059529;28;20269;-62
2022/09/06 08:52:02;;;;;;;4.33;2.43;;;;;;;;;;5058340;28;20300;-62
2022/09/06 08:54:32;;;;;;;5.40;2.13;;;;;;;;;;5059650;28;20235;-62
2022/09/06 08:57:09;;;;;;;9.37;2.70;;;;;;;;;;5059624;28;20264;-62
2022/09/06 08:59:39;;;;;;;7.77;2.80;;;;;;;;;;5059264;28;20251;-62
2022/09/06 09:02:11;;;;;;;7.53;2.20;;;;;;;;;;5059424;28;20216;-62
2022/09/06 09:04:42;;;;;;;6.50;2.33;;;;;;;;;;5059168;28;20594;-62
2022/09/06 09:07:34;;;;;;;6.43;1.87;;;;;;;;;;5056218;28;20295;-62
2022/09/06 09:10:08;;;;;;;7.17;2.03;;;;;;;;;;5045594;28;20209;-62
2022/09/06 09:12:41;;;;;;;5.53;2.00;;;;;;;;;;5059393;28;20211;-62
2022/09/06 09:15:11;;;;;;;4.23;1.63;;;;;;;;;;5059409;28;20263;-62
2022/09/06 09:17:41;;;;;;;3.00;1.50;;;;;;;;;;5072095;28;20730;-62
2022/09/06 09:20:10;;;;;;;6.70;1.93;;;;;;;;;;5057874;28;20272;-62
2022/09/06 09:22:39;;;;;;;4.07;2.30;;;;;;;;;;5057904;28;20208;-62
2022/09/06 09:25:08;;;;;;;9.63;2.23;;;;;;;;;;5055622;28;20220;-62
2022/09/06 09:27:38;;;;;;;6.80;1.80;;;;;;;;;;5059568;28;20199;-62
2022/09/06 09:30:07;;;;;;;5.07;1.80;;;;;;;;;;5056318;28;20227;-62
2022/09/06 09:32:55;;;;;;;4.20;1.80;;;;;;;;;;5058413;28;20201;-62
2022/09/06 09:35:27;;;;;;;7.57;1.97;;;;;;;;;;5058467;28;20232;-62
2022/09/06 09:38:01;;;;;;;8.77;1.77;;;;;;;;;;5055593;28;20563;-63
2022/09/06 09:40:40;;;;;;;6.87;1.77;;;;;;;;;;5058275;28;20199;-62
2022/09/06 09:43:16;;;;;;;6.10;1.70;;;;;;;;;;5057782;28;20238;-62
2022/09/06 09:45:44;;;;;;;5.77;2.30;;;;;;;;;;5058409;28;20201;-62
2022/09/06 09:48:20;;;;;;;6.80;1.93;;;;;;;;;;5058297;28;20611;-62
2022/09/06 09:50:49;;;;;;;5.75;2.00;;;;;;;;;;5058166;28;20236;-62
2022/09/06 09:53:19;;;;;;;7.20;2.60;;;;;;;;;;5058351;28;20305;-62
2022/09/06 09:55:48;;;;;;;12.60;2.83;;;;;;;;;;5067541;28;20254;-62
2022/09/06 09:58:25;;;;;;;13.20;3.40;;;;;;;;;;5073276;28;20207;-62
2022/09/06 10:01:09;;;;;;;11.17;2.83;;;;;;;;;;5058493;28;20261;-61
2022/09/06 10:03:37;;;;;;;13.50;3.00;;;;;;;;;;5058237;28;20231;-61
2022/09/06 10:06:26;;;;;;;5.88;2.13;;;;;;;;;;5057755;28;20298;-61
2022/09/06 10:09:16;;;;;;;6.47;2.30;;;;;;;;;;5057877;28;20217;-61
2022/09/06 10:11:52;;;;;;;5.50;2.08;;;;;;;;;;5058098;28;20203;-61
2022/09/06 10:14:25;;;;;;;4.82;1.77;;;;;;;;;;5057984;28;20262;-61
2022/09/06 10:16:54;;;;;;;5.67;1.80;;;;;;;;;;5050885;28;20349;-61
2022/09/06 10:19:23;;;;;;;4.57;1.88;;;;;;;;;;5058215;28;20208;-61
2022/09/06 10:21:55;;;;;;;9.07;2.13;;;;;;;;;;5057809;28;20236;-61
2022/09/06 10:24:24;;;;;;;4.53;1.83;;;;;;;;;;5058097;28;20231;-61
2022/09/06 10:26:55;;;;;;;5.95;1.90;;;;;;;;;;5058205;28;20243;-61
2022/09/06 10:29:30;;;;;;;6.30;2.15;;;;;;;;;;5057782;28;20625;-61
2022/09/06 10:32:09;;;;;;;7.30;2.65;;;;;;;;;;5058197;28;20284;-61
2022/09/06 10:34:54;;;;;;;3.40;2.70;;;;;;;;;;5056998;28;20232;-61
2022/09/06 10:37:33;;;;;;;9.85;2.70;;;;;;;;;;5057659;28;20208;-60
2022/09/06 10:40:06;;;;;;;8.68;2.75;;;;;;;;;;5057996;28;20241;-61
2022/09/06 10:42:39;;;;;;;6.82;2.20;;;;;;;;;;5059209;28;20198;-61
2022/09/06 10:45:15;;;;;;;5.53;2.00;;;;;;;;;;5054967;28;20715;-62
2022/09/06 10:47:55;;;;;;;7.50;1.75;;;;;;;;;;5057434;28;20733;-60
2022/09/06 10:50:25;;;;;;;7.70;2.22;;;;;;;;;;5056807;28;20201;-61
2022/09/06 10:52:54;;;;;;;5.88;2.38;;;;;;;;;;5051431;28;20235;-60
2022/09/06 10:55:23;;;;;;;5.07;2.05;;;;;;;;;;5056756;28;20257;-60
2022/09/06 10:57:53;;;;;;;7.10;2.00;;;;;;;;;;5056586;28;20233;-60
2022/09/06 11:00:45;;;;;;;4.00;1.60;;;;;;;;;;5052586;28;20237;-60
2022/09/06 11:03:18;;;;;;;7.32;1.60;;;;;;;;;;5056613;28;20624;-60
2022/09/06 11:06:07;;;;;;;4.05;1.63;;;;;;;;;;5056044;28;20228;-60
2022/09/06 11:08:38;;;;;;;6.50;1.50;;;;;;;;;;5057618;28;20197;-60
2022/09/06 11:11:17;;;;;;;6.50;2.03;;;;;;;;;;5053129;28;20208;-60
2022/09/06 11:13:46;;;;;;;6.20;1.58;;;;;;;;;;5056570;28;21685;-60
2022/09/06 11:16:16;;;;;;;4.30;1.80;;;;;;;;;;5055562;28;20229;-60
2022/09/06 11:18:47;;;;;;;3.78;1.40;;;;;;;;;;5048919;28;20201;-60
2022/09/06 11:21:25;;;;;;;4.53;1.77;;;;;;;;;;5054637;28;20213;-60
2022/09/06 11:23:54;;;;;;;4.85;1.90;;;;;;;;;;5054989;28;20224;-61
2022/09/06 11:26:30;;;;;;;5.82;1.75;;;;;;;;;;5054343;28;20217;-61
2022/09/06 11:28:59;;;;;;;5.63;1.65;;;;;;;;;;5054716;28;20219;-61
2022/09/06 11:31:28;;;;;;;4.68;1.75;;;;;;;;;;5054538;28;20211;-61
2022/09/06 11:34:21;;;;;;;7.82;2.17;;;;;;;;;;5054455;28;20781;-61
2022/09/06 11:36:50;;;;;;;3.67;1.67;;;;;;;;;;5055085;28;20267;-61
2022/09/06 11:39:24;;;;;;;6.55;1.73;;;;;;;;;;5055491;28;20622;-61
2022/09/06 11:42:38;;;;;;;8.05;1.65;;;;;;;;;;5055274;28;20576;-61
2022/09/06 11:45:20;;;;;;;4.05;1.52;;;;;;;;;;5057495;28;20235;-61
2022/09/06 11:47:48;;;;;;;5.78;1.67;;;;;;;;;;5059696;28;20677;-61
2022/09/06 11:50:47;;;;;;;10.52;2.08;;;;;;;;;;5059034;28;20229;-61
2022/09/06 11:53:16;;;;;;;6.85;2.08;;;;;;;;;;5058572;28;20231;-61
2022/09/06 11:55:45;;;;;;;6.53;1.58;;;;;;;;;;5058756;28;20225;-60
2022/09/06 11:58:22;;;;;;;6.38;1.90;;;;;;;;;;5068787;28;20234;-60
2022/09/06 12:01:05;;;;;;;7.15;2.00;;;;;;;;;;5064583;28;20202;-60
2022/09/06 12:03:52;;;;;;;4.20;1.40;;;;;;;;;;5059626;28;20721;-60
2022/09/06 12:06:39;;;;;;;5.65;1.85;;;;;;;;;;5061793;28;20338;-61
2022/09/06 12:09:22;;;;;;;4.75;1.90;;;;;;;;;;5055880;28;20646;-61
2022/09/06 12:11:52;;;;;;;7.78;1.92;;;;;;;;;;5057584;28;20222;-61
2022/09/06 12:14:27;;;;;;;7.40;2.28;;;;;;;;;;5056671;28;20771;-60
2022/09/06 12:17:26;;;;;;;5.35;2.03;;;;;;;;;;5058451;28;20229;-61
2022/09/06 12:19:56;;;;;;;5.00;1.27;;;;;;;;;;5057306;28;20205;-60
2022/09/06 12:22:57;;;;;;;5.38;1.60;;;;;;;;;;5057340;28;20206;-60
2022/09/06 12:25:44;;;;;;;9.75;1.92;;;;;;;;;;5031765;28;20211;-60
2022/09/06 12:28:22;;;;;;;7.20;2.05;;;;;;;;;;5032811;28;20210;-61
2022/09/06 12:30:50;;;;;;;5.82;2.17;;;;;;;;;;5046187;28;20210;-61
2022/09/06 12:33:22;;;;;;;9.68;1.73;;;;;;;;;;5050032;28;20230;-61
2022/09/06 12:35:50;;;;;;;5.00;1.73;;;;;;;;;;5059681;28;20230;-60
2022/09/06 12:38:23;;;;;;;7.78;1.92;;;;;;;;;;5058720;28;20205;-60
2022/09/06 12:40:55;;;;;;;8.88;2.58;;;;;;;;;;5062747;28;20214;-60
2022/09/06 12:43:24;;;;;;;20.70;2.75;;;;;;;;;;5051866;28;20954;-60
2022/09/06 12:45:52;;;;;;;5.82;1.73;;;;;;;;;;5060716;28;20206;-61
2022/09/06 12:48:27;;;;;;;8.43;2.08;;;;;;;;;;5057838;28;20207;-60
2022/09/06 12:51:03;;;;;;;13.88;2.40;;;;;;;;;;5059013;28;20269;-60
2022/09/06 12:53:33;;;;;;;7.35;1.55;;;;;;;;;;5059389;28;20226;-60
2022/09/06 12:56:05;;;;;;;7.80;2.00;;;;;;;;;;5059128;28;20296;-59
2022/09/06 12:58:35;;;;;;;7.90;2.25;;;;;;;;;;5058161;28;20214;-59
2022/09/06 13:01:05;;;;;;;5.47;2.33;;;;;;;;;;5054819;28;20202;-59
2022/09/06 13:03:36;;;;;;;5.80;1.80;;;;;;;;;;5058924;28;20222;-60
2022/09/06 13:06:05;;;;;;;4.93;1.92;;;;;;;;;;5058285;28;20202;-60
2022/09/06 13:08:35;;;;;;;6.80;2.45;;;;;;;;;;5059068;28;20736;-61
2022/09/06 13:11:03;;;;;;;9.32;2.13;;;;;;;;;;5057273;28;20254;-61
2022/09/06 13:13:32;;;;;;;4.97;1.90;;;;;;;;;;5065383;28;20231;-61
2022/09/06 13:16:01;;;;;;;11.25;2.05;;;;;;;;;;5047168;28;20203;-61
2022/09/06 13:18:32;;;;;;;8.88;2.65;;;;;;;;;;5059456;28;20237;-61
2022/09/06 13:21:01;;;;;;;5.78;1.98;;;;;;;;;;5055302;28;20229;-61
2022/09/06 13:23:29;;;;;;;9.93;2.03;;;;;;;;;;5057359;28;20289;-61
2022/09/06 13:25:58;;;;;;;8.65;1.98;;;;;;;;;;5057798;28;20203;-61
2022/09/06 13:28:27;;;;;;;5.47;1.98;;;;;;;;;;5057373;28;20550;-61
2022/09/06 13:31:04;;;;;;;6.43;1.88;;;;;;;;;;5058552;28;20206;-61
2022/09/06 13:33:32;;;;;;;8.05;1.73;;;;;;;;;;5054619;28;20317;-61
2022/09/06 13:36:08;;;;;;;7.82;1.75;;;;;;;;;;5058137;28;20202;-61
2022/09/06 13:38:40;;;;;;;8.93;1.60;;;;;;;;;;5059115;28;20228;-60
2022/09/06 13:41:31;;;;;;;5.82;1.75;;;;;;;;;;5056582;28;20260;-61
2022/09/06 13:43:59;;;;;;;10.27;2.17;;;;;;;;;;5058244;28;20655;-61
2022/09/06 13:46:29;;;;;;;9.93;2.20;;;;;;;;;;5058530;28;20228;-61
2022/09/06 13:48:57;;;;;;;8.60;2.28;;;;;;;;;;5055194;28;20286;-60
2022/09/06 13:51:26;;;;;;;12.77;2.47;;;;;;;;;;5054065;28;20706;-60
2022/09/06 13:54:03;;;;;;;13.82;2.95;;;;;;;;;;5052260;28;20235;-61
2022/09/06 13:56:31;;;;;;;11.40;2.90;;;;;;;;;;5057437;28;20273;-61
2022/09/06 13:58:59;;;;;;;7.03;2.13;;;;;;;;;;5057627;28;20206;-61
2022/09/06 14:01:29;;;;;;;7.35;2.20;;;;;;;;;;5059412;28;20199;-60
2022/09/06 14:03:57;;;;;;;6.10;1.98;;;;;;;;;;5051958;28;20292;-61
2022/09/06 14:06:25;;;;;;;6.63;1.92;;;;;;;;;;5053574;28;20199;-60
2022/09/06 14:08:53;;;;;;;6.68;1.58;;;;;;;;;;5056732;28;20206;-61
2022/09/06 14:11:33;;;;;;;7.72;2.00;;;;;;;;;;5053825;28;20206;-61
2022/09/06 14:14:02;;;;;;;7.20;3.00;;;;;;;;;;5058187;28;20235;-61
2022/09/06 14:16:31;;;;;;;9.20;2.20;;;;;;;;;;5057919;28;20207;-61
2022/09/06 14:18:59;;;;;;;9.02;1.92;;;;;;;;;;5056176;28;20214;-60
2022/09/06 14:21:27;;;;;;;6.00;2.03;;;;;;;;;;5044547;28;20228;-61
2022/09/06 14:23:57;;;;;;;7.18;2.28;;;;;;;;;;5048275;28;20223;-61
2022/09/06 14:26:31;;;;;;;9.90;1.80;;;;;;;;;;5055597;28;20308;-61
2022/09/06 14:28:59;;;;;;;6.95;2.22;;;;;;;;;;5057802;28;20203;-61
2022/09/06 14:31:28;;;;;;;11.68;2.13;;;;;;;;;;5056275;28;20206;-61
2022/09/06 14:33:57;;;;;;;13.23;2.50;;;;;;;;;;5056463;28;20996;-61
2022/09/06 14:36:28;;;;;;;17.70;4.85;;;;;;;;;;5054089;28;20251;-64
2022/09/06 14:38:57;;;;;;;29.98;17.50;;;;;;;;;;5056464;28;20222;-59
2022/09/06 14:41:25;;;;;;;12.10;3.05;;;;;;;;;;5049257;28;20237;-59
2022/09/06 14:43:54;;;;;;;6.60;2.83;;;;;;;;;;5066513;28;20248;-63
2022/09/06 14:46:22;;;;;;;8.95;2.28;;;;;;;;;;5057431;28;20198;-63
2022/09/06 14:48:57;;;;;;;8.43;2.72;;;;;;;;;;5053719;28;20292;-64
2022/09/06 14:51:25;;;;;;;10.52;2.85;;;;;;;;;;5057122;28;20272;-63
2022/09/06 14:53:54;;;;;;;30.48;6.10;;;;;;;;;;5056335;28;20799;-62
2022/09/06 14:56:23;;;;;;;14.30;4.20;;;;;;;;;;5056793;28;20207;-62
2022/09/06 14:58:53;;;;;;;8.30;2.50;;;;;;;;;;5050303;28;20226;-62
2022/09/06 15:01:22;;;;;;;9.30;2.22;;;;;;;;;;5056053;28;20203;-62
2022/09/06 15:03:51;;;;;;;8.20;2.22;;;;;;;;;;5056422;28;20229;-61
2022/09/06 15:06:21;;;;;;;6.85;2.47;;;;;;;;;;5056940;28;20264;-61